createdAt,value
2017-04-20T00:00:52.051Z,2.30
2017-04-20T00:01:51.299Z,2.30
2017-04-20T00:02:50.520Z,2.20
2017-04-20T00:03:49.810Z,2.20
2017-04-20T00:04:49.043Z,2.20
2017-04-20T00:05:48.288Z,2.20
2017-04-20T00:06:47.520Z,2.20
2017-04-20T00:07:46.737Z,2.20
2017-04-20T00:08:46.257Z,2.20
2017-04-20T00:09:44.722Z,2.20
2017-04-20T00:10:43.927Z,2.10
2017-04-20T00:11:43.164Z,2.20
2017-04-20T00:12:42.386Z,2.10
2017-04-20T00:13:41.597Z,2.10
2017-04-20T00:14:40.847Z,2.10
2017-04-20T00:15:40.089Z,2.10
2017-04-20T00:16:39.305Z,2.10
2017-04-20T00:17:38.532Z,2.10
2017-04-20T00:18:37.745Z,2.10
2017-04-20T00:19:36.992Z,2.10
2017-04-20T00:20:36.216Z,2.10
2017-04-20T00:21:35.451Z,2.10
2017-04-20T00:22:34.675Z,2.10
2017-04-20T00:23:33.885Z,2.10
2017-04-20T00:24:33.128Z,2.10
2017-04-20T00:25:32.468Z,2.10
2017-04-20T00:26:31.676Z,2.10
2017-04-20T00:27:31.016Z,2.20
2017-04-20T00:28:30.326Z,2.20
2017-04-20T00:29:29.639Z,2.20
2017-04-20T00:30:28.849Z,2.10
2017-04-20T00:31:28.056Z,2.10
2017-04-20T00:32:27.288Z,2.10
2017-04-20T00:33:26.508Z,2.10
2017-04-20T00:34:25.767Z,2.00
2017-04-20T00:35:25.032Z,2.00
2017-04-20T00:36:24.292Z,2.00
2017-04-20T00:37:23.520Z,2.00
2017-04-20T00:38:22.761Z,2.00
2017-04-20T00:39:21.972Z,2.00
2017-04-20T00:40:21.260Z,2.00
2017-04-20T00:41:20.477Z,2.00
2017-04-20T00:42:19.988Z,1.90
2017-04-20T00:43:19.291Z,1.90
2017-04-20T00:44:18.576Z,1.90
2017-04-20T00:45:17.873Z,1.90
2017-04-20T00:46:17.124Z,1.90
2017-04-20T00:47:16.405Z,1.90
2017-04-20T00:48:15.615Z,1.90
2017-04-20T00:49:14.831Z,1.90
2017-04-20T00:50:14.072Z,1.80
2017-04-20T00:51:13.292Z,1.90
2017-04-20T00:52:12.512Z,1.80
2017-04-20T00:53:11.723Z,1.70
2017-04-20T00:54:10.955Z,1.70
2017-04-20T00:55:10.199Z,1.70
2017-04-20T00:56:09.427Z,1.70
2017-04-20T00:57:08.735Z,1.60
2017-04-20T00:58:08.012Z,1.60
2017-04-20T00:59:07.261Z,1.60
2017-04-20T01:00:06.845Z,1.50
2017-04-20T01:01:06.079Z,1.60
2017-04-20T01:02:05.332Z,1.50
2017-04-20T01:03:11.236Z,1.50
2017-04-20T01:04:10.435Z,1.50
2017-04-20T01:05:09.931Z,1.60
2017-04-20T01:06:09.179Z,1.60
2017-04-20T01:07:08.411Z,1.60
2017-04-20T01:08:10.351Z,1.60
2017-04-20T01:09:10.080Z,1.60
2017-04-20T01:10:09.905Z,1.60
2017-04-20T01:11:09.695Z,1.60
2017-04-20T01:12:09.280Z,1.60
2017-04-20T01:13:08.903Z,1.60
2017-04-20T01:14:08.115Z,1.60
2017-04-20T01:15:07.359Z,1.60
2017-04-20T01:16:06.607Z,1.70
2017-04-20T01:17:08.667Z,1.70
2017-04-20T01:18:08.490Z,1.70
2017-04-20T01:19:07.776Z,1.70
2017-04-20T01:20:07.069Z,1.60
2017-04-20T01:21:06.324Z,1.60
2017-04-20T01:22:06.241Z,1.50
2017-04-20T01:23:05.482Z,1.50
2017-04-20T01:24:05.280Z,1.50
2017-04-20T01:25:04.508Z,1.50
2017-04-20T01:26:04.478Z,1.50
2017-04-20T01:27:04.906Z,1.50
2017-04-20T01:28:04.600Z,1.40
2017-04-20T01:29:03.813Z,1.40
2017-04-20T01:30:03.036Z,1.30
2017-04-20T01:31:02.275Z,1.30
2017-04-20T01:32:01.575Z,1.30
2017-04-20T01:33:00.776Z,1.20
2017-04-20T01:34:00.004Z,1.20
2017-04-20T01:34:59.240Z,1.10
2017-04-20T01:35:58.448Z,1.10
2017-04-20T01:36:57.687Z,1.10
2017-04-20T01:37:56.915Z,1.00
2017-04-20T01:38:56.132Z,1.00
2017-04-20T01:39:55.352Z,0.90
2017-04-20T01:40:54.584Z,0.90
2017-04-20T01:41:53.821Z,0.90
2017-04-20T01:42:53.032Z,0.90
2017-04-20T01:43:52.237Z,0.90
2017-04-20T01:44:51.444Z,0.90
2017-04-20T01:45:50.664Z,0.90
2017-04-20T01:46:49.898Z,0.80
2017-04-20T01:47:49.141Z,0.80
2017-04-20T01:48:48.365Z,0.80
2017-04-20T01:49:47.588Z,0.80
2017-04-20T01:50:46.824Z,0.80
2017-04-20T01:51:46.433Z,0.90
2017-04-20T01:52:45.703Z,0.90
2017-04-20T01:53:44.925Z,0.80
2017-04-20T01:54:44.141Z,0.80
2017-04-20T01:55:43.353Z,0.80
2017-04-20T01:56:42.570Z,0.70
2017-04-20T01:57:41.809Z,0.70
2017-04-20T01:58:41.036Z,0.70
2017-04-20T01:59:40.249Z,0.60
2017-04-20T02:00:39.460Z,0.60
2017-04-20T02:01:38.720Z,0.60
2017-04-20T02:02:37.967Z,0.60
2017-04-20T02:03:37.186Z,0.50
2017-04-20T02:04:36.445Z,0.50
2017-04-20T02:05:35.678Z,0.50
2017-04-20T02:06:34.892Z,0.50
2017-04-20T02:07:34.140Z,0.50
2017-04-20T02:08:33.359Z,0.50
2017-04-20T02:09:32.595Z,0.50
2017-04-20T02:10:31.048Z,0.40
2017-04-20T02:11:30.260Z,0.40
2017-04-20T02:12:29.868Z,0.40
2017-04-20T02:13:29.837Z,0.30
2017-04-20T02:14:29.036Z,0.40
2017-04-20T02:15:28.255Z,0.40
2017-04-20T02:16:27.465Z,0.40
2017-04-20T02:17:27.419Z,0.40
2017-04-20T02:18:26.685Z,0.40
2017-04-20T02:19:25.996Z,0.30
2017-04-20T02:20:25.207Z,0.30
2017-04-20T02:21:24.441Z,0.40
2017-04-20T02:22:24.417Z,0.30
2017-04-20T02:23:23.664Z,0.40
2017-04-20T02:24:22.889Z,0.40
2017-04-20T02:25:22.110Z,0.40
2017-04-20T02:26:21.408Z,0.40
2017-04-20T02:27:20.629Z,0.40
2017-04-20T02:28:19.867Z,0.30
2017-04-20T02:29:19.165Z,0.30
2017-04-20T02:30:18.380Z,0.30
2017-04-20T02:31:17.623Z,0.30
2017-04-20T02:32:16.863Z,0.30
2017-04-20T02:33:16.427Z,0.30
2017-04-20T02:34:15.649Z,0.30
2017-04-20T02:35:14.852Z,0.20
2017-04-20T02:36:14.064Z,0.20
2017-04-20T02:37:13.281Z,0.20
2017-04-20T02:38:12.511Z,0.20
2017-04-20T02:39:11.753Z,0.20
2017-04-20T02:40:10.973Z,0.20
2017-04-20T02:41:10.175Z,0.20
2017-04-20T02:42:09.411Z,0.20
2017-04-20T02:43:08.721Z,0.20
2017-04-20T02:44:08.033Z,0.20
2017-04-20T02:45:07.296Z,0.20
2017-04-20T02:46:06.558Z,0.20
2017-04-20T02:47:05.772Z,0.20
2017-04-20T02:48:05.060Z,0.20
2017-04-20T02:49:04.299Z,0.20
2017-04-20T02:50:03.511Z,0.10
2017-04-20T02:51:02.788Z,0.10
2017-04-20T02:52:02.021Z,0.10
2017-04-20T02:53:01.231Z,0.00
2017-04-20T02:54:00.475Z,0.00
2017-04-20T02:54:59.692Z,0.00
2017-04-20T02:55:58.151Z,-0.10
2017-04-20T02:56:57.372Z,0.00
2017-04-20T02:57:56.608Z,-0.10
2017-04-20T02:58:56.587Z,-0.10
2017-04-20T02:59:55.809Z,-0.10
2017-04-20T03:00:55.088Z,-0.10
2017-04-20T03:01:54.324Z,-0.10
2017-04-20T03:02:53.539Z,-0.20
2017-04-20T03:03:53.579Z,-0.20
2017-04-20T03:04:52.816Z,-0.20
2017-04-20T03:05:52.032Z,-0.20
2017-04-20T03:06:51.268Z,-0.20
2017-04-20T03:07:50.507Z,-0.20
2017-04-20T03:08:49.739Z,-0.20
2017-04-20T03:09:49.023Z,-0.20
2017-04-20T03:10:48.240Z,-0.20
2017-04-20T03:11:47.460Z,-0.20
2017-04-20T03:12:46.689Z,-0.20
2017-04-20T03:13:45.936Z,-0.20
2017-04-20T03:14:45.266Z,-0.30
2017-04-20T03:15:44.472Z,-0.20
2017-04-20T03:16:43.704Z,-0.20
2017-04-20T03:17:42.943Z,-0.20
2017-04-20T03:18:42.168Z,-0.20
2017-04-20T03:19:41.412Z,-0.20
2017-04-20T03:20:40.629Z,-0.10
2017-04-20T03:21:39.848Z,-0.20
2017-04-20T03:22:39.076Z,-0.10
2017-04-20T03:23:38.288Z,-0.10
2017-04-20T03:24:37.532Z,-0.10
2017-04-20T03:25:36.754Z,-0.10
2017-04-20T03:26:35.972Z,-0.10
2017-04-20T03:27:35.185Z,-0.10
2017-04-20T03:28:34.416Z,-0.10
2017-04-20T03:29:34.352Z,-0.10
2017-04-20T03:30:33.929Z,-0.10
2017-04-20T03:31:33.180Z,-0.10
2017-04-20T03:32:32.443Z,-0.10
2017-04-20T03:33:31.672Z,-0.10
2017-04-20T03:34:31.096Z,-0.10
2017-04-20T03:35:30.652Z,-0.10
2017-04-20T03:36:30.065Z,-0.10
2017-04-20T03:37:29.779Z,-0.10
2017-04-20T03:38:29.412Z,-0.10
2017-04-20T03:39:28.708Z,-0.10
2017-04-20T03:40:28.133Z,-0.10
2017-04-20T03:41:27.500Z,0.00
2017-04-20T03:42:26.748Z,0.00
2017-04-20T03:43:25.979Z,0.10
2017-04-20T03:44:25.587Z,0.10
2017-04-20T03:45:25.375Z,0.00
2017-04-20T03:46:24.766Z,0.10
2017-04-20T03:47:24.121Z,0.10
2017-04-20T03:48:23.379Z,0.10
2017-04-20T03:49:22.846Z,0.10
2017-04-20T03:50:22.088Z,0.10
2017-04-20T03:51:21.751Z,0.10
2017-04-20T03:52:21.027Z,0.10
2017-04-20T03:53:20.370Z,0.10
2017-04-20T03:54:19.619Z,0.10
2017-04-20T03:55:18.636Z,0.00
2017-04-20T03:56:17.926Z,0.00
2017-04-20T03:57:17.249Z,0.00
2017-04-20T03:58:16.760Z,0.00
2017-04-20T03:59:15.973Z,0.10
2017-04-20T04:00:15.237Z,0.10
2017-04-20T04:01:14.477Z,0.10
2017-04-20T04:02:13.701Z,0.10
2017-04-20T04:03:12.905Z,0.10
2017-04-20T04:04:12.130Z,0.20
2017-04-20T04:05:11.387Z,0.20
2017-04-20T04:06:10.591Z,0.20
2017-04-20T04:07:09.820Z,0.20
2017-04-20T04:08:09.088Z,0.20
2017-04-20T04:09:08.321Z,0.10
2017-04-20T04:10:07.600Z,0.00
2017-04-20T04:11:06.820Z,0.00
2017-04-20T04:12:06.039Z,0.00
2017-04-20T04:13:05.248Z,-0.10
2017-04-20T04:14:04.484Z,-0.10
2017-04-20T04:15:03.777Z,-0.10
2017-04-20T04:16:03.003Z,-0.10
2017-04-20T04:17:02.281Z,-0.20
2017-04-20T04:18:01.581Z,-0.20
2017-04-20T04:19:00.814Z,-0.20
2017-04-20T04:20:00.492Z,-0.20
2017-04-20T04:20:59.716Z,-0.20
2017-04-20T04:21:58.173Z,-0.30
2017-04-20T04:22:57.392Z,-0.20
2017-04-20T04:23:55.845Z,-0.20
2017-04-20T04:24:55.068Z,-0.20
2017-04-20T04:25:54.312Z,-0.20
2017-04-20T04:26:53.553Z,-0.20
2017-04-20T04:27:52.788Z,-0.30
2017-04-20T04:28:52.004Z,-0.30
2017-04-20T04:29:51.215Z,-0.30
2017-04-20T04:30:50.458Z,-0.30
2017-04-20T04:31:49.672Z,-0.30
2017-04-20T04:32:48.884Z,-0.30
2017-04-20T04:33:48.184Z,-0.30
2017-04-20T04:34:47.408Z,-0.20
2017-04-20T04:35:46.660Z,-0.20
2017-04-20T04:36:45.889Z,-0.20
2017-04-20T04:37:45.096Z,-0.20
2017-04-20T04:38:44.326Z,-0.20
2017-04-20T04:39:43.603Z,-0.20
2017-04-20T04:40:42.844Z,-0.20
2017-04-20T04:41:42.061Z,-0.20
2017-04-20T04:42:41.265Z,-0.20
2017-04-20T04:43:40.484Z,-0.10
2017-04-20T04:44:39.735Z,-0.10
2017-04-20T04:45:38.986Z,-0.10
2017-04-20T04:46:38.196Z,-0.10
2017-04-20T04:47:37.401Z,0.00
2017-04-20T04:48:36.639Z,0.00
2017-04-20T04:49:35.857Z,0.00
2017-04-20T04:50:35.119Z,0.00
2017-04-20T04:51:35.089Z,0.00
2017-04-20T04:52:34.356Z,0.00
2017-04-20T04:53:33.677Z,0.00
2017-04-20T04:54:32.905Z,0.00
2017-04-20T04:55:32.480Z,0.00
2017-04-20T04:56:31.705Z,0.00
2017-04-20T04:57:30.934Z,0.10
2017-04-20T04:58:30.156Z,0.10
2017-04-20T04:59:29.414Z,0.10
2017-04-20T05:00:27.860Z,0.10
2017-04-20T05:01:27.129Z,0.20
2017-04-20T05:02:26.349Z,0.30
2017-04-20T05:03:25.559Z,0.40
2017-04-20T05:04:24.787Z,0.40
2017-04-20T05:05:24.022Z,0.40
2017-04-20T05:06:23.264Z,0.50
2017-04-20T05:07:22.488Z,0.50
2017-04-20T05:08:21.708Z,0.60
2017-04-20T05:09:20.944Z,0.60
2017-04-20T05:10:20.148Z,0.60
2017-04-20T05:11:18.615Z,0.50
2017-04-20T05:12:17.828Z,0.60
2017-04-20T05:13:17.056Z,0.60
2017-04-20T05:14:16.273Z,0.60
2017-04-20T05:15:15.540Z,0.50
2017-04-20T05:16:15.685Z,0.40
2017-04-20T05:17:14.913Z,0.40
2017-04-20T05:18:14.128Z,0.50
2017-04-20T05:19:13.360Z,0.40
2017-04-20T05:20:12.555Z,0.40
2017-04-20T05:21:11.784Z,0.40
2017-04-20T05:22:11.003Z,0.50
2017-04-20T05:23:10.228Z,0.40
2017-04-20T05:24:09.507Z,0.40
2017-04-20T05:25:07.959Z,0.40
2017-04-20T05:26:07.184Z,0.50
2017-04-20T05:27:06.435Z,0.60
2017-04-20T05:28:05.662Z,0.70
2017-04-20T05:29:04.876Z,0.70
2017-04-20T05:30:03.390Z,0.70
2017-04-20T05:31:02.616Z,0.80
2017-04-20T05:32:01.888Z,0.80
2017-04-20T05:33:01.106Z,0.90
2017-04-20T05:34:00.320Z,0.90
2017-04-20T05:34:59.536Z,1.00
2017-04-20T05:35:58.746Z,1.00
2017-04-20T05:36:57.988Z,1.10
2017-04-20T05:37:57.447Z,1.10
2017-04-20T05:38:56.713Z,1.10
2017-04-20T05:39:55.932Z,1.10
2017-04-20T05:40:55.196Z,1.20
2017-04-20T05:41:54.428Z,1.30
2017-04-20T05:42:53.641Z,1.10
2017-04-20T05:43:52.872Z,1.10
2017-04-20T05:44:52.125Z,1.10
2017-04-20T05:45:51.345Z,1.10
2017-04-20T05:46:50.961Z,1.20
2017-04-20T05:47:50.176Z,1.10
2017-04-20T05:48:49.444Z,1.10
2017-04-20T05:49:47.900Z,1.10
2017-04-20T05:50:47.126Z,1.10
2017-04-20T05:51:46.372Z,1.10
2017-04-20T05:52:45.753Z,1.20
2017-04-20T05:53:45.828Z,1.20
2017-04-20T05:54:45.023Z,1.30
2017-04-20T05:55:44.237Z,1.40
2017-04-20T05:56:43.519Z,1.40
2017-04-20T05:57:42.872Z,1.60
2017-04-20T05:58:42.072Z,1.80
2017-04-20T05:59:41.372Z,1.70
2017-04-20T06:00:40.596Z,1.80
2017-04-20T06:01:40.011Z,1.90
2017-04-20T06:02:39.264Z,1.80
2017-04-20T06:03:38.497Z,1.80
2017-04-20T06:04:37.741Z,1.80
2017-04-20T06:05:37.023Z,1.80
2017-04-20T06:06:36.261Z,1.80
2017-04-20T06:07:35.512Z,1.80
2017-04-20T06:08:33.980Z,1.70
2017-04-20T06:09:33.217Z,1.90
2017-04-20T06:10:32.532Z,1.90
2017-04-20T06:11:31.807Z,1.90
2017-04-20T06:12:31.239Z,2.00
2017-04-20T06:13:30.468Z,2.10
2017-04-20T06:14:29.780Z,2.20
2017-04-20T06:15:29.008Z,2.40
2017-04-20T06:16:28.280Z,2.50
2017-04-20T06:17:27.926Z,2.40
2017-04-20T06:18:27.306Z,2.40
2017-04-20T06:19:27.328Z,2.40
2017-04-20T06:20:26.560Z,2.50
2017-04-20T06:21:25.772Z,2.50
2017-04-20T06:22:25.520Z,2.50
2017-04-20T06:23:24.773Z,2.50
2017-04-20T06:24:24.189Z,2.60
2017-04-20T06:25:23.403Z,2.70
2017-04-20T06:26:22.615Z,3.00
2017-04-20T06:27:21.999Z,3.30
2017-04-20T06:28:20.516Z,3.30
2017-04-20T06:29:19.032Z,3.90
2017-04-20T06:30:18.259Z,4.80
2017-04-20T06:31:17.460Z,5.10
2017-04-20T06:32:16.688Z,5.30
2017-04-20T06:33:15.988Z,5.70
2017-04-20T06:34:15.217Z,6.00
2017-04-20T06:35:14.428Z,6.30
2017-04-20T06:36:13.685Z,6.60
2017-04-20T06:37:12.929Z,6.70
2017-04-20T06:38:12.906Z,6.80
2017-04-20T06:39:12.244Z,7.10
2017-04-20T06:40:11.456Z,7.40
2017-04-20T06:41:10.673Z,7.70
2017-04-20T06:42:09.871Z,7.40
2017-04-20T06:43:09.728Z,7.40
2017-04-20T06:44:08.953Z,7.50
2017-04-20T06:45:08.224Z,7.40
2017-04-20T06:46:07.458Z,7.20
2017-04-20T06:47:06.688Z,7.20
2017-04-20T06:48:06.821Z,7.30
2017-04-20T06:49:06.148Z,7.60
2017-04-20T06:50:04.670Z,7.50
2017-04-20T06:51:03.909Z,7.60
2017-04-20T06:52:03.127Z,7.60
2017-04-20T06:53:02.349Z,7.90
2017-04-20T06:54:01.676Z,8.10
2017-04-20T06:55:00.897Z,8.10
2017-04-20T06:56:00.120Z,8.00
2017-04-20T06:56:59.414Z,8.10
2017-04-20T06:57:58.632Z,8.40
2017-04-20T06:58:57.873Z,8.60
2017-04-20T06:59:57.551Z,9.10
2017-04-20T07:00:56.876Z,9.40
2017-04-20T07:01:56.178Z,9.70
2017-04-20T07:02:58.199Z,9.90
2017-04-20T07:03:57.452Z,9.80
2017-04-20T07:04:56.736Z,10.00
2017-04-20T07:05:56.364Z,9.80
2017-04-20T07:06:55.683Z,9.90
2017-04-20T07:07:54.988Z,10.10
2017-04-20T07:08:54.385Z,10.20
2017-04-20T07:09:53.645Z,10.30
2017-04-20T07:10:52.984Z,10.10
2017-04-20T07:11:52.205Z,10.30
2017-04-20T07:12:52.012Z,10.50
2017-04-20T07:13:51.616Z,10.50
2017-04-20T07:14:50.856Z,10.10
2017-04-20T07:15:50.072Z,9.60
2017-04-20T07:16:49.444Z,9.40
2017-04-20T07:17:48.700Z,9.70
2017-04-20T07:18:47.221Z,9.70
2017-04-20T07:19:46.544Z,10.40
2017-04-20T07:20:46.411Z,10.20
2017-04-20T07:21:45.800Z,9.90
2017-04-20T07:22:44.313Z,9.90
2017-04-20T07:23:43.544Z,10.00
2017-04-20T07:24:42.782Z,9.40
2017-04-20T07:25:42.395Z,9.00
2017-04-20T07:26:41.632Z,9.30
2017-04-20T07:27:40.924Z,9.50
2017-04-20T07:28:39.384Z,9.40
2017-04-20T07:29:38.625Z,9.80
2017-04-20T07:30:38.056Z,10.10
2017-04-20T07:31:37.324Z,10.30
2017-04-20T07:32:36.556Z,10.40
2017-04-20T07:33:35.800Z,10.60
2017-04-20T07:34:35.067Z,10.80
2017-04-20T07:35:34.309Z,10.70
2017-04-20T07:36:34.325Z,10.50
2017-04-20T07:37:33.565Z,10.50
2017-04-20T07:38:32.780Z,10.50
2017-04-20T07:39:31.909Z,10.40
2017-04-20T07:40:31.137Z,10.90
2017-04-20T07:41:30.369Z,11.20
2017-04-20T07:42:29.620Z,11.30
2017-04-20T07:43:28.850Z,11.60
2017-04-20T07:44:28.080Z,11.70
2017-04-20T07:45:28.271Z,11.60
2017-04-20T07:46:27.531Z,11.70
2017-04-20T07:47:26.769Z,11.30
2017-04-20T07:48:26.041Z,11.30
2017-04-20T07:49:25.308Z,11.90
2017-04-20T07:50:24.577Z,12.00
2017-04-20T07:51:23.821Z,11.90
2017-04-20T07:52:23.028Z,12.30
2017-04-20T07:53:22.264Z,12.20
2017-04-20T07:54:21.477Z,12.10
2017-04-20T07:55:21.069Z,11.80
2017-04-20T07:56:20.297Z,11.60
2017-04-20T07:57:19.531Z,11.90
2017-04-20T07:58:18.760Z,12.30
2017-04-20T07:59:17.986Z,12.50
2017-04-20T08:00:17.227Z,13.00
2017-04-20T08:01:16.484Z,12.70
2017-04-20T08:02:15.731Z,13.00
2017-04-20T08:03:14.236Z,13.00
2017-04-20T08:04:13.676Z,12.60
2017-04-20T08:05:12.955Z,12.60
2017-04-20T08:06:12.223Z,12.60
2017-04-20T08:07:11.445Z,12.80
2017-04-20T08:08:10.891Z,12.50
2017-04-20T08:09:10.492Z,12.10
2017-04-20T08:10:10.204Z,12.20
2017-04-20T08:11:09.503Z,12.00
2017-04-20T08:12:09.708Z,11.90
2017-04-20T08:13:08.540Z,11.90
2017-04-20T08:14:07.932Z,11.80
2017-04-20T08:15:06.456Z,11.80
2017-04-20T08:16:05.948Z,12.00
2017-04-20T08:17:05.307Z,12.10
2017-04-20T08:18:04.391Z,12.10
2017-04-20T08:19:03.834Z,11.90
2017-04-20T08:20:03.509Z,12.00
2017-04-20T08:21:03.376Z,11.60
2017-04-20T08:22:02.875Z,11.60
2017-04-20T08:23:01.537Z,11.60
2017-04-20T08:24:01.401Z,10.60
2017-04-20T08:25:00.868Z,10.50
2017-04-20T08:26:00.698Z,10.50
2017-04-20T08:27:00.509Z,10.50
2017-04-20T08:28:00.236Z,10.80
2017-04-20T08:28:59.776Z,11.20
2017-04-20T08:30:00.208Z,11.20
2017-04-20T08:31:00.093Z,11.50
2017-04-20T08:32:00.507Z,11.50
2017-04-20T08:33:00.189Z,10.40
2017-04-20T08:34:00.577Z,9.80
2017-04-20T08:34:59.564Z,9.70
2017-04-20T08:35:59.228Z,8.60
2017-04-20T08:36:58.990Z,8.50
2017-04-20T08:37:58.484Z,8.90
2017-04-20T08:38:58.653Z,9.40
2017-04-20T08:39:58.368Z,9.50
2017-04-20T08:40:57.706Z,10.30
2017-04-20T08:41:57.424Z,10.20
2017-04-20T08:42:56.652Z,10.90
2017-04-20T08:43:56.092Z,11.60
2017-04-20T08:44:55.884Z,12.30
2017-04-20T08:45:58.760Z,12.60
2017-04-20T08:46:59.078Z,12.50
2017-04-20T08:47:58.772Z,12.60
2017-04-20T08:48:58.121Z,12.30
2017-04-20T08:49:57.585Z,12.00
2017-04-20T08:50:57.145Z,11.50
2017-04-20T08:51:56.627Z,11.10
2017-04-20T08:52:55.365Z,11.10
2017-04-20T08:53:54.937Z,10.50
2017-04-20T08:54:54.369Z,10.90
2017-04-20T08:55:53.763Z,10.90
2017-04-20T08:56:53.420Z,10.50
2017-04-20T08:57:52.826Z,10.20
2017-04-20T08:58:52.248Z,9.90
2017-04-20T08:59:52.060Z,9.50
2017-04-20T09:00:51.511Z,9.20
2017-04-20T09:01:51.225Z,8.90
2017-04-20T09:02:50.459Z,8.70
2017-04-20T09:03:49.827Z,8.60
2017-04-20T09:04:49.048Z,8.60
2017-04-20T09:05:48.322Z,8.50
2017-04-20T09:06:47.632Z,8.30
2017-04-20T09:07:46.887Z,8.30
2017-04-20T09:08:46.115Z,8.10
2017-04-20T09:09:45.396Z,8.20
2017-04-20T09:10:45.271Z,8.00
2017-04-20T09:11:44.651Z,7.90
2017-04-20T09:12:43.282Z,7.90
2017-04-20T09:13:42.941Z,8.50
2017-04-20T09:14:42.202Z,8.40
2017-04-20T09:15:41.459Z,8.60
2017-04-20T09:16:40.821Z,8.90
2017-04-20T09:17:40.345Z,9.10
2017-04-20T09:18:39.581Z,9.50
2017-04-20T09:19:38.068Z,9.40
2017-04-20T09:20:37.174Z,9.80
2017-04-20T09:21:36.771Z,9.90
2017-04-20T09:22:36.417Z,9.70
2017-04-20T09:23:36.013Z,9.80
2017-04-20T09:24:35.935Z,9.70
2017-04-20T09:25:35.293Z,9.90
2017-04-20T09:26:34.540Z,10.20
2017-04-20T09:27:34.828Z,10.80
2017-04-20T09:28:34.092Z,11.00
2017-04-20T09:29:32.580Z,11.00
2017-04-20T09:30:33.177Z,10.50
2017-04-20T09:31:32.623Z,10.40
2017-04-20T09:32:31.709Z,10.30
2017-04-20T09:33:32.793Z,10.60
2017-04-20T09:34:31.533Z,10.60
2017-04-20T09:35:30.776Z,11.20
2017-04-20T09:36:30.513Z,11.20
2017-04-20T09:37:30.409Z,11.00
2017-04-20T09:38:30.225Z,10.70
2017-04-20T09:39:29.956Z,10.60
2017-04-20T09:40:29.622Z,10.40
2017-04-20T09:41:29.485Z,10.10
2017-04-20T09:42:29.329Z,9.60
2017-04-20T09:43:29.038Z,9.50
2017-04-20T09:44:28.938Z,9.20
2017-04-20T09:45:28.688Z,9.40
2017-04-20T09:46:28.525Z,9.80
2017-04-20T09:47:28.185Z,10.00
2017-04-20T09:48:27.513Z,10.50
2017-04-20T09:49:26.907Z,10.90
2017-04-20T09:50:25.505Z,10.80
2017-04-20T09:51:24.773Z,11.00
2017-04-20T09:52:24.380Z,11.30
2017-04-20T09:53:23.488Z,11.20
2017-04-20T09:54:22.952Z,11.20
2017-04-20T09:55:22.432Z,11.20
2017-04-20T09:56:21.851Z,11.10
2017-04-20T09:57:21.167Z,11.00
2017-04-20T09:58:20.452Z,10.60
2017-04-20T09:59:19.789Z,10.40
2017-04-20T10:00:19.172Z,10.20
2017-04-20T10:01:18.955Z,9.90
2017-04-20T10:02:18.344Z,9.60
2017-04-20T10:03:17.968Z,9.40
2017-04-20T10:04:17.599Z,9.10
2017-04-20T10:05:17.043Z,8.90
2017-04-20T10:06:16.863Z,8.80
2017-04-20T10:07:16.600Z,8.50
2017-04-20T10:08:16.366Z,8.40
2017-04-20T10:09:15.673Z,8.30
2017-04-20T10:10:15.073Z,8.20
2017-04-20T10:11:14.301Z,8.30
2017-04-20T10:12:14.000Z,8.30
2017-04-20T10:13:13.260Z,8.30
2017-04-20T10:14:12.533Z,8.10
2017-04-20T10:15:11.863Z,8.20
2017-04-20T10:16:11.716Z,8.40
2017-04-20T10:17:11.461Z,8.60
2017-04-20T10:18:10.723Z,8.70
2017-04-20T10:19:10.648Z,8.70
2017-04-20T10:20:10.013Z,8.80
2017-04-20T10:21:09.478Z,8.90
2017-04-20T10:22:09.513Z,9.00
2017-04-20T10:23:08.786Z,9.10
2017-04-20T10:24:08.045Z,9.00
2017-04-20T10:25:07.344Z,8.70
2017-04-20T10:26:06.613Z,8.50
2017-04-20T10:27:05.855Z,8.50
2017-04-20T10:28:05.858Z,8.40
2017-04-20T10:29:05.724Z,8.50
2017-04-20T10:30:05.264Z,8.90
2017-04-20T10:31:05.195Z,9.20
2017-04-20T10:32:04.408Z,9.60
2017-04-20T10:33:04.086Z,10.00
2017-04-20T10:34:03.935Z,10.20
2017-04-20T10:35:03.779Z,10.50
2017-04-20T10:36:03.594Z,10.50
2017-04-20T10:37:03.199Z,10.80
2017-04-20T10:38:02.993Z,11.10
2017-04-20T10:39:01.703Z,11.00
2017-04-20T10:40:01.649Z,11.20
2017-04-20T10:41:01.111Z,11.20
2017-04-20T10:42:00.497Z,11.30
2017-04-20T10:42:59.793Z,11.20
2017-04-20T10:43:59.608Z,11.10
2017-04-20T10:44:58.943Z,11.00
2017-04-20T10:45:59.380Z,10.70
2017-04-20T10:46:59.192Z,10.60
2017-04-20T10:47:59.091Z,10.50
2017-04-20T10:48:58.948Z,10.20
2017-04-20T10:50:02.684Z,9.90
2017-04-20T10:51:02.048Z,9.60
2017-04-20T10:52:03.924Z,9.40
2017-04-20T10:53:04.640Z,9.40
2017-04-20T10:54:03.872Z,9.40
2017-04-20T10:55:03.457Z,9.40
2017-04-20T10:56:02.869Z,9.30
2017-04-20T10:57:01.880Z,9.20
2017-04-20T10:58:02.012Z,9.30
2017-04-20T10:59:01.296Z,8.90
2017-04-20T11:00:01.656Z,8.70
2017-04-20T11:01:01.585Z,8.70
2017-04-20T11:02:00.738Z,8.70
2017-04-20T11:03:00.652Z,9.20
2017-04-20T11:04:01.227Z,9.50
2017-04-20T11:05:01.240Z,10.20
2017-04-20T11:06:01.315Z,10.70
2017-04-20T11:07:01.321Z,11.10
2017-04-20T11:08:01.350Z,11.40
2017-04-20T11:09:01.440Z,11.40
2017-04-20T11:10:01.370Z,11.00
2017-04-20T11:11:00.780Z,10.60
2017-04-20T11:12:01.700Z,10.60
2017-04-20T11:13:01.724Z,10.60
2017-04-20T11:14:02.413Z,10.70
2017-04-20T11:15:02.579Z,10.70
2017-04-20T11:16:02.693Z,10.50
2017-04-20T11:17:02.267Z,10.30
2017-04-20T11:18:01.860Z,10.70
2017-04-20T11:19:01.192Z,11.20
2017-04-20T11:20:01.178Z,11.70
2017-04-20T11:21:01.129Z,12.00
2017-04-20T11:22:01.009Z,12.40
2017-04-20T11:23:00.249Z,12.30
2017-04-20T11:23:59.564Z,12.40
2017-04-20T11:24:58.858Z,12.00
2017-04-20T11:25:58.649Z,11.40
2017-04-20T11:26:59.069Z,11.30
2017-04-20T11:27:58.571Z,11.40
2017-04-20T11:28:58.129Z,11.20
2017-04-20T11:29:57.675Z,10.90
2017-04-20T11:30:57.298Z,10.70
2017-04-20T11:31:56.847Z,10.70
2017-04-20T11:32:56.144Z,10.70
2017-04-20T11:33:55.376Z,10.60
2017-04-20T11:34:54.943Z,10.30
2017-04-20T11:35:55.201Z,10.10
2017-04-20T11:36:54.434Z,9.90
2017-04-20T11:37:53.169Z,9.80
2017-04-20T11:38:52.121Z,9.70
2017-04-20T11:39:51.386Z,9.40
2017-04-20T11:40:50.604Z,9.60
2017-04-20T11:41:49.836Z,9.80
2017-04-20T11:42:51.965Z,9.90
2017-04-20T11:43:53.957Z,10.00
2017-04-20T11:44:53.621Z,10.00
2017-04-20T11:45:52.864Z,9.90
2017-04-20T11:46:52.682Z,10.00
2017-04-20T11:47:51.904Z,10.00
2017-04-20T11:48:51.724Z,10.20
2017-04-20T11:49:53.623Z,10.30
2017-04-20T11:50:53.933Z,10.40
2017-04-20T11:51:53.693Z,10.50
2017-04-20T11:52:53.973Z,10.40
2017-04-20T11:53:54.440Z,10.20
2017-04-20T11:54:58.008Z,9.90
2017-04-20T11:55:57.784Z,9.50
2017-04-20T11:56:57.478Z,9.40
2017-04-20T11:57:56.704Z,9.50
2017-04-20T11:58:55.959Z,9.40
2017-04-20T11:59:55.203Z,9.40
2017-04-20T12:00:54.689Z,9.40
2017-04-20T12:01:54.212Z,9.60
2017-04-20T12:02:53.488Z,9.50
2017-04-20T12:03:53.048Z,9.40
2017-04-20T12:04:52.710Z,9.50
2017-04-20T12:05:52.516Z,9.60
2017-04-20T12:06:52.605Z,9.80
2017-04-20T12:07:52.277Z,9.80
2017-04-20T12:08:52.076Z,9.80
2017-04-20T12:09:51.712Z,10.10
2017-04-20T12:10:51.297Z,10.40
2017-04-20T12:11:50.788Z,10.50
2017-04-20T12:12:50.876Z,10.60
2017-04-20T12:13:50.244Z,10.70
2017-04-20T12:14:49.816Z,10.70
2017-04-20T12:15:49.933Z,10.80
2017-04-20T12:16:49.477Z,11.00
2017-04-20T12:17:49.068Z,11.10
2017-04-20T12:18:49.712Z,11.00
2017-04-20T12:19:49.509Z,11.10
2017-04-20T12:20:49.332Z,11.20
2017-04-20T12:21:49.192Z,11.30
2017-04-20T12:22:48.853Z,11.40
2017-04-20T12:23:49.365Z,11.20
2017-04-20T12:24:49.264Z,11.00
2017-04-20T12:25:48.552Z,10.80
2017-04-20T12:26:48.257Z,10.90
2017-04-20T12:27:47.526Z,10.80
2017-04-20T12:28:46.758Z,10.60
2017-04-20T12:29:46.083Z,10.50
2017-04-20T12:30:45.824Z,10.20
2017-04-20T12:31:45.590Z,10.30
2017-04-20T12:32:45.349Z,10.10
2017-04-20T12:33:45.001Z,10.20
2017-04-20T12:34:44.720Z,10.20
2017-04-20T12:35:44.747Z,10.30
2017-04-20T12:36:45.260Z,10.20
2017-04-20T12:37:43.748Z,10.20
2017-04-20T12:38:43.003Z,10.70
2017-04-20T12:39:42.745Z,10.70
2017-04-20T12:40:41.987Z,10.80
2017-04-20T12:41:41.283Z,10.90
2017-04-20T12:42:44.226Z,10.90
2017-04-20T12:43:47.170Z,10.90
2017-04-20T12:44:47.552Z,11.20
2017-04-20T12:45:46.944Z,11.20
2017-04-20T12:46:46.215Z,11.20
2017-04-20T12:47:45.496Z,10.70
2017-04-20T12:48:44.968Z,10.20
2017-04-20T12:49:44.607Z,9.70
2017-04-20T12:50:43.966Z,9.70
2017-04-20T12:51:43.484Z,9.60
2017-04-20T12:52:43.304Z,9.80
2017-04-20T12:53:42.632Z,9.90
2017-04-20T12:54:42.776Z,10.10
2017-04-20T12:55:42.153Z,10.30
2017-04-20T12:56:41.904Z,10.50
2017-04-20T12:57:41.204Z,10.60
2017-04-20T12:58:40.782Z,10.60
2017-04-20T12:59:41.038Z,10.70
2017-04-20T13:00:40.698Z,10.80
2017-04-20T13:01:40.621Z,10.80